Time;durP1;ratioP1;P1;durP2;ratioP2;P2;SDS_P1;SDS_P2;PMS_P1;PMS_P2;Temp;Humidity;BMP_temperature;BMP_pressure;BME280_temperature;BME280_humidity;BME280_pressure;Samples;Min_cycle;Max_cycle;Signal;HPM_P1;HPM_P2
2021/11/05 00:02:05;;;;;;;;;3.50;2.00;;;;;9.51;69.59;101080.38;5076556;28;45612;-61
2021/11/05 00:04:30;;;;;;;;;3.00;3.00;;;;;9.48;69.69;101073.56;5078274;28;72239;-60
2021/11/05 00:06:55;;;;;;;;;3.50;3.00;;;;;9.48;69.81;101089.28;5079259;27;61821;-60
2021/11/05 00:09:21;;;;;;;;;2.00;2.00;;;;;9.48;69.89;101084.03;5079677;28;53766;-60
2021/11/05 00:11:46;;;;;;;;;2.50;2.00;;;;;9.48;69.67;101085.84;5079307;28;68007;-61
2021/11/05 00:14:11;;;;;;;;;1.25;1.00;;;;;9.48;70.07;101084.03;5079264;28;61989;-60
2021/11/05 00:16:37;;;;;;;;;2.00;1.50;;;;;9.48;69.92;101073.56;5077685;28;69344;-61
2021/11/05 00:19:02;;;;;;;;;3.00;2.00;;;;;9.49;70.07;101085.72;5079917;28;45328;-60
2021/11/05 00:21:28;;;;;;;;;1.00;1.00;;;;;9.49;69.86;101087.53;5080135;28;45361;-60
2021/11/05 00:23:53;;;;;;;;;2.75;1.00;;;;;9.52;70.04;101084.66;5078451;28;69816;-60
2021/11/05 00:26:19;;;;;;;;;1.00;1.00;;;;;9.52;69.69;101089.91;5079739;28;45433;-61
2021/11/05 00:28:44;;;;;;;;;1.00;1.00;;;;;9.53;69.89;101088.13;5079090;27;59778;-60
2021/11/05 00:31:09;;;;;;;;;1.75;1.00;;;;;9.52;70.05;101086.44;5079756;28;45719;-61
2021/11/05 00:33:35;;;;;;;;;2.00;2.00;;;;;9.54;70.11;101102.91;5079438;27;45511;-61
2021/11/05 00:36:00;;;;;;;;;2.00;2.00;;;;;9.54;69.85;101097.66;5078840;28;70219;-61
2021/11/05 00:38:25;;;;;;;;;1.75;1.25;;;;;9.54;69.97;101093.22;5079120;28;56799;-60
2021/11/05 00:40:51;;;;;;;;;1.50;1.50;;;;;9.57;70.20;101095.63;5078647;27;67965;-61
2021/11/05 00:43:16;;;;;;;;;4.00;1.50;;;;;9.58;70.04;101099.09;5078646;28;67689;-61
2021/11/05 00:45:42;;;;;;;;;2.50;2.00;;;;;9.58;70.04;101113.03;5078517;27;70639;-60
2021/11/05 00:48:07;;;;;;;;;5.00;3.00;;;;;9.58;70.21;101102.53;5078765;27;57609;-61
2021/11/05 00:50:32;;;;;;;;;4.00;2.00;;;;;9.59;70.17;101112.09;5078433;28;45586;-60
2021/11/05 00:52:58;;;;;;;;;4.00;3.00;;;;;9.61;69.79;101114.63;5079378;28;45322;-61
2021/11/05 00:55:24;;;;;;;;;6.25;2.25;;;;;9.62;70.02;101122.34;5077369;28;45357;-60
2021/11/05 00:57:50;;;;;;;;;3.00;2.25;;;;;9.62;70.21;101122.34;5079525;27;45505;-61
2021/11/05 01:00:16;;;;;;;;;6.00;3.00;;;;;9.64;69.96;101128.31;5078178;28;45442;-60
2021/11/05 01:02:41;;;;;;;;;3.00;3.00;;;;;9.64;69.99;101123.06;5079129;28;46292;-61
2021/11/05 01:05:07;;;;;;;;;2.25;2.25;;;;;9.66;70.12;101128.22;5079114;27;45330;-60
2021/11/05 01:07:32;;;;;;;;;3.50;3.00;;;;;9.67;69.93;101129.91;5079062;28;45265;-60
2021/11/05 01:09:58;;;;;;;;;2.00;2.00;;;;;9.67;69.84;101129.03;5078314;27;64580;-60
2021/11/05 01:12:23;;;;;;;;;5.75;3.00;;;;;9.68;69.89;101131.56;5079039;28;46178;-61
2021/11/05 01:14:50;;;;;;;;;6.00;4.00;;;;;9.69;69.46;101140.25;5077441;27;45341;-61
2021/11/05 01:17:15;;;;;;;;;2.00;2.00;;;;;9.68;69.45;101147.31;5079312;28;45220;-60
2021/11/05 01:19:40;;;;;;;;;4.75;3.00;;;;;9.68;69.63;101151.72;5078904;27;45989;-60
2021/11/05 01:22:06;;;;;;;;;7.00;2.75;;;;;9.68;69.61;101154.34;5078817;28;46124;-60
2021/11/05 01:24:31;;;;;;;;;3.75;3.00;;;;;9.67;69.59;101144.78;5078098;28;54615;-61
2021/11/05 01:26:57;;;;;;;;;4.50;3.00;;;;;9.68;69.36;101141.22;5076866;28;60939;-60
2021/11/05 01:29:22;;;;;;;;;2.75;2.75;;;;;9.67;69.46;101147.41;5078981;28;45668;-60
2021/11/05 01:31:48;;;;;;;;;4.00;2.25;;;;;9.66;69.80;101151.84;5077697;28;71151;-60
2021/11/05 01:34:13;;;;;;;;;4.50;3.50;;;;;9.64;69.59;101151.13;5078645;28;45398;-61
2021/11/05 01:36:39;;;;;;;;;3.50;3.00;;;;;9.63;69.34;101155.50;5077578;27;45373;-60
2021/11/05 01:39:04;;;;;;;;;5.00;4.75;;;;;9.62;69.75;101153.03;5078632;27;45279;-60
2021/11/05 01:41:30;;;;;;;;;4.50;4.00;;;;;9.62;69.59;101158.25;5078002;28;62961;-60
2021/11/05 01:43:55;;;;;;;;;3.00;2.75;;;;;9.60;69.15;101155.75;5078458;28;45341;-60
2021/11/05 01:46:21;;;;;;;;;6.25;4.00;;;;;9.61;69.63;101162.66;5077998;28;59158;-61
2021/11/05 01:48:46;;;;;;;;;3.75;3.00;;;;;9.60;69.58;101163.63;5078353;28;45532;-60
2021/11/05 01:51:13;;;;;;;;;4.00;3.00;;;;;9.60;69.46;101171.47;5077080;28;45561;-60
2021/11/05 01:53:38;;;;;;;;;7.00;5.75;;;;;9.60;69.55;101170.66;5077245;27;45306;-60
2021/11/05 01:56:04;;;;;;;;;6.25;6.25;;;;;9.59;69.50;101169.81;5077296;28;45433;-60
2021/11/05 01:58:29;;;;;;;;;11.50;8.00;;;;;9.58;69.11;101164.69;5077928;28;45474;-60
2021/11/05 02:00:55;;;;;;;;;2.00;0.00;;;;;9.57;69.30;101171.72;5078199;28;45567;-61
2021/11/05 02:03:20;;;;;;;;;6.50;5.00;;;;;9.57;69.16;101178.75;5078112;28;45813;-61
2021/11/05 02:05:46;;;;;;;;;5.50;4.00;;;;;9.55;69.37;101173.59;5076270;27;63058;-60
2021/11/05 02:08:12;;;;;;;;;5.00;3.50;;;;;9.54;69.18;101173.75;5060149;28;45606;-61
2021/11/05 02:10:37;;;;;;;;;5.00;3.25;;;;;9.54;69.36;101185.06;5076747;28;46359;-60
2021/11/05 02:13:03;;;;;;;;;5.00;4.00;;;;;9.55;69.03;101178.03;5076063;28;63956;-60
2021/11/05 02:15:28;;;;;;;;;3.50;3.00;;;;;9.52;69.39;101179.09;5076740;28;50067;-60
2021/11/05 02:17:53;;;;;;;;;8.00;3.50;;;;;9.50;69.14;101181.00;5077398;28;63670;-60
2021/11/05 02:20:29;;;;;;;;;4.75;3.25;;;;;9.50;69.30;101181.00;5077897;28;46293;-61
2021/11/05 02:22:54;;;;;;;;;5.00;3.00;;;;;9.45;69.24;101176.09;5078146;28;45373;-61
2021/11/05 02:25:20;;;;;;;;;5.50;3.50;;;;;9.45;69.29;101180.50;5077547;28;45434;-61
2021/11/05 02:27:45;;;;;;;;;4.00;2.00;;;;;9.46;69.28;101190.88;5077295;28;45522;-59
2021/11/05 02:30:11;;;;;;;;;3.75;2.00;;;;;9.46;69.37;101192.69;5077687;28;46457;-60
2021/11/05 02:32:37;;;;;;;;;5.00;3.75;;;;;9.44;69.32;101191.94;5077691;28;45374;-60
2021/11/05 02:35:04;;;;;;;;;3.50;3.50;;;;;9.43;69.19;101195.53;5076275;28;45269;-60
2021/11/05 02:37:29;;;;;;;;;4.75;4.75;;;;;9.42;69.00;101189.41;5076114;28;45679;-60
2021/11/05 02:39:54;;;;;;;;;5.00;3.00;;;;;9.40;69.09;101196.56;5077509;28;46443;-60
2021/11/05 02:42:20;;;;;;;;;4.00;4.00;;;;;9.40;69.08;101203.63;5077691;28;45285;-61
2021/11/05 02:44:46;;;;;;;;;3.50;3.00;;;;;9.41;69.12;101215.78;5077693;28;45315;-61
2021/11/05 02:47:19;;;;;;;;;4.75;3.00;;;;;9.40;69.08;101211.47;5077621;27;45201;-61
2021/11/05 02:49:44;;;;;;;;;5.00;3.00;;;;;9.41;69.24;101215.78;5076350;27;45489;-60
2021/11/05 02:52:10;;;;;;;;;3.25;1.50;;;;;9.42;68.88;101214.81;5077591;28;45367;-60
2021/11/05 02:54:35;;;;;;;;;4.50;2.50;;;;;9.40;69.09;101217.53;5077736;27;45232;-60
2021/11/05 02:57:00;;;;;;;;;8.25;3.00;;;;;9.40;68.81;101216.72;5076091;28;45193;-60
2021/11/05 02:59:26;;;;;;;;;2.00;2.00;;;;;9.41;68.98;101218.41;5076586;28;66680;-60
2021/11/05 03:01:52;;;;;;;;;2.25;2.00;;;;;9.40;68.91;101221.97;5077412;28;45391;-60
2021/11/05 03:04:17;;;;;;;;;4.00;4.00;;;;;9.41;68.95;101234.13;5076600;28;61835;-60
2021/11/05 03:06:42;;;;;;;;;2.25;2.25;;;;;9.41;69.07;101228.88;5076750;27;53202;-60
2021/11/05 03:09:09;;;;;;;;;4.25;3.00;;;;;9.40;68.81;101227.22;5077032;28;46228;-61
2021/11/05 03:11:35;;;;;;;;;3.50;2.50;;;;;9.41;68.91;101232.34;5077159;28;45793;-61
2021/11/05 03:14:00;;;;;;;;;4.25;2.25;;;;;9.40;68.99;101233.28;5077162;28;45353;-60
2021/11/05 03:16:25;;;;;;;;;3.50;3.50;;;;;9.42;68.81;101238.44;5076821;28;49181;-61
2021/11/05 03:18:51;;;;;;;;;7.00;4.00;;;;;9.41;68.55;101245.44;5076260;28;67256;-60
2021/11/05 03:21:16;;;;;;;;;4.25;4.00;;;;;9.41;68.69;101249.88;5076997;27;45317;-60
2021/11/05 03:23:42;;;;;;;;;5.25;2.00;;;;;9.41;68.65;101248.06;5076225;28;62025;-61
2021/11/05 03:26:07;;;;;;;;;3.25;2.25;;;;;9.40;68.63;101254.28;5075415;28;45922;-60
2021/11/05 03:28:33;;;;;;;;;3.25;3.00;;;;;9.40;68.89;101253.44;5076002;28;67229;-60
2021/11/05 03:30:58;;;;;;;;;3.00;3.00;;;;;9.41;69.00;101255.13;5076431;27;53025;-60
2021/11/05 03:33:24;;;;;;;;;5.00;4.00;;;;;9.41;68.64;101258.56;5076996;28;45390;-60
2021/11/05 03:35:49;;;;;;;;;3.50;2.75;;;;;9.40;68.54;101259.50;5075664;27;45456;-60
2021/11/05 03:38:14;;;;;;;;;5.00;3.00;;;;;9.40;68.68;101271.81;5075629;28;45567;-60
2021/11/05 03:40:40;;;;;;;;;2.75;2.00;;;;;9.41;68.54;101270.84;5076781;28;45450;-61
2021/11/05 03:43:05;;;;;;;;;6.00;3.00;;;;;9.39;68.51;101273.56;5075952;27;62809;-61
2021/11/05 03:45:31;;;;;;;;;4.50;3.00;;;;;9.39;68.55;101272.75;5076731;28;45588;-60
2021/11/05 03:47:56;;;;;;;;;5.25;3.00;;;;;9.36;68.74;101279.03;5076340;28;45380;-61
2021/11/05 03:50:22;;;;;;;;;3.00;3.00;;;;;9.37;68.88;101285.13;5076097;28;62925;-60
2021/11/05 03:52:47;;;;;;;;;8.75;3.75;;;;;9.36;68.55;101289.53;5076199;28;53450;-60
2021/11/05 03:55:13;;;;;;;;;6.00;4.50;;;;;9.35;68.63;101288.72;5075957;28;59848;-60
2021/11/05 03:57:38;;;;;;;;;3.00;3.00;;;;;9.35;68.52;101291.34;5076525;27;45443;-61
2021/11/05 04:00:08;;;;;;;;;5.00;4.00;;;;;9.33;68.47;101289.75;5076668;28;45170;-60
2021/11/05 04:02:34;;;;;;;;;2.00;2.00;;;;;9.33;68.38;101289.75;5075568;28;45311;-61
2021/11/05 04:04:59;;;;;;;;;5.50;1.75;;;;;9.30;68.31;101288.19;5076452;28;45314;-60
2021/11/05 04:07:25;;;;;;;;;3.00;2.00;;;;;9.30;68.51;101295.22;5076111;27;46105;-61
2021/11/05 04:09:50;;;;;;;;;4.00;3.00;;;;;9.28;68.56;101303.19;5074196;28;71448;-60
2021/11/05 04:12:15;;;;;;;;;2.50;2.00;;;;;9.29;68.67;101304.88;5076670;28;45539;-60
2021/11/05 04:14:41;;;;;;;;;3.25;2.00;;;;;9.28;68.45;101313.69;5076498;28;45451;-60
2021/11/05 04:17:06;;;;;;;;;1.50;1.25;;;;;9.25;68.44;101313.91;5076167;28;45787;-60
2021/11/05 04:19:32;;;;;;;;;3.75;2.00;;;;;9.25;68.51;101313.91;5075787;28;55890;-61
2021/11/05 04:21:57;;;;;;;;;3.50;1.25;;;;;9.24;68.23;101319.28;5076336;28;45300;-60
2021/11/05 04:24:23;;;;;;;;;2.75;2.75;;;;;9.22;68.07;101329.84;5075354;28;62498;-61
2021/11/05 04:26:48;;;;;;;;;2.50;2.50;;;;;9.20;68.22;101336.97;5076072;27;46652;-60
2021/11/05 04:29:15;;;;;;;;;2.00;2.00;;;;;9.19;68.51;101344.03;5075495;28;62417;-60
2021/11/05 04:31:42;;;;;;;;;4.50;2.00;;;;;9.18;68.30;101341.50;5076453;27;45361;-61
2021/11/05 04:34:07;;;;;;;;;2.00;2.00;;;;;9.16;68.53;101346.00;5075562;28;62534;-60
2021/11/05 04:36:33;;;;;;;;;1.00;1.00;;;;;9.14;68.40;101348.75;5073281;27;67977;-60
2021/11/05 04:38:59;;;;;;;;;2.50;2.00;;;;;9.13;68.49;101347.06;5075974;28;45872;-60
2021/11/05 04:41:25;;;;;;;;;3.00;2.00;;;;;9.12;68.49;101349.78;5076219;28;45389;-60
2021/11/05 04:43:51;;;;;;;;;2.75;2.00;;;;;9.13;68.42;101346.22;5075976;28;45370;-60
2021/11/05 04:46:17;;;;;;;;;3.75;2.00;;;;;9.10;68.49;101352.53;5074820;28;47021;-61
2021/11/05 04:48:42;;;;;;;;;2.00;1.25;;;;;9.09;68.45;101352.63;5076222;28;45250;-61
2021/11/05 04:51:07;;;;;;;;;4.75;2.00;;;;;9.06;68.55;101351.88;5078757;27;60833;-60
2021/11/05 04:53:33;;;;;;;;;4.75;2.00;;;;;9.05;68.63;101359.88;5079602;27;45580;-61
2021/11/05 04:55:58;;;;;;;;;3.00;3.00;;;;;9.02;68.62;101367.94;5079390;27;46405;-61
2021/11/05 04:58:23;;;;;;;;;4.00;2.00;;;;;9.00;68.53;101373.31;5077172;28;71302;-60
2021/11/05 05:00:49;;;;;;;;;4.25;1.00;;;;;8.99;68.78;101376.00;5078872;27;54100;-60
2021/11/05 05:03:14;;;;;;;;;3.25;2.00;;;;;9.00;68.59;101381.16;5077481;27;45255;-60
2021/11/05 05:05:40;;;;;;;;;4.00;2.00;;;;;8.99;68.78;101381.25;5078338;28;66296;-60
2021/11/05 05:08:05;;;;;;;;;2.75;2.50;;;;;8.95;68.81;101383.25;5078994;28;45448;-61
2021/11/05 05:10:30;;;;;;;;;4.00;2.25;;;;;8.93;68.82;101387.78;5079431;28;45551;-60
2021/11/05 05:12:56;;;;;;;;;5.00;2.50;;;;;8.91;68.73;101385.25;5078753;28;45543;-60
2021/11/05 05:15:22;;;;;;;;;3.25;2.00;;;;;8.93;68.39;101397.41;5078960;27;46922;-60
2021/11/05 05:17:47;;;;;;;;;2.00;1.50;;;;;8.93;68.91;101403.50;5079044;27;45521;-60
2021/11/05 05:20:14;;;;;;;;;4.50;2.00;;;;;8.93;68.83;101403.50;5078450;28;57678;-60
2021/11/05 05:22:40;;;;;;;;;2.00;2.00;;;;;8.93;68.66;101410.50;5078945;27;45457;-61
2021/11/05 05:25:06;;;;;;;;;2.25;2.25;;;;;8.94;68.75;101407.78;5078523;27;45312;-61
2021/11/05 05:27:31;;;;;;;;;2.00;2.00;;;;;8.94;68.44;101410.41;5078761;28;45300;-59
2021/11/05 05:29:57;;;;;;;;;4.00;2.00;;;;;8.95;68.35;101408.63;5079012;28;45842;-61
2021/11/05 05:32:22;;;;;;;;;2.00;2.00;;;;;8.95;68.60;101419.97;5079244;27;45231;-60
2021/11/05 05:34:48;;;;;;;;;3.75;2.00;;;;;8.95;68.54;101417.34;5078641;27;47550;-61
2021/11/05 05:37:13;;;;;;;;;5.50;4.00;;;;;8.95;68.67;101419.97;5077702;28;69447;-60
2021/11/05 05:39:38;;;;;;;;;3.75;2.50;;;;;8.96;68.67;101426.03;5078780;28;45446;-60
2021/11/05 05:42:04;;;;;;;;;8.25;4.00;;;;;8.96;68.65;101424.25;5077917;28;61554;-61
2021/11/05 05:44:30;;;;;;;;;2.00;2.00;;;;;8.98;68.52;101427.63;5078532;27;45600;-60
2021/11/05 05:46:55;;;;;;;;;4.00;2.50;;;;;8.99;68.58;101428.44;5077884;27;61976;-61
2021/11/05 05:49:20;;;;;;;;;4.25;3.00;;;;;8.99;68.20;101431.06;5077694;28;62386;-60
2021/11/05 05:51:46;;;;;;;;;6.75;4.00;;;;;9.00;68.17;101441.47;5077520;27;67239;-61
2021/11/05 05:54:11;;;;;;;;;4.75;2.00;;;;;8.98;68.50;101439.88;5077303;28;73937;-61
2021/11/05 05:56:36;;;;;;;;;5.00;3.00;;;;;9.01;68.09;101431.81;5076467;28;62264;-60
2021/11/05 05:59:02;;;;;;;;;4.00;3.50;;;;;9.00;68.38;101445.84;5078441;27;45806;-61
2021/11/05 06:01:27;;;;;;;;;4.75;2.00;;;;;9.00;68.42;101451.09;5077477;28;45514;-60
2021/11/05 06:03:53;;;;;;;;;2.00;2.00;;;;;9.00;68.34;101457.19;5077564;28;65084;-60
2021/11/05 06:06:18;;;;;;;;;3.25;3.00;;;;;9.00;68.37;101466.81;5078130;27;45342;-60
2021/11/05 06:08:44;;;;;;;;;3.00;2.50;;;;;9.00;68.37;101462.44;5059941;28;45823;-61
2021/11/05 06:11:09;;;;;;;;;4.25;4.25;;;;;9.00;68.17;101472.91;5077056;28;45391;-61
2021/11/05 06:13:35;;;;;;;;;5.00;4.00;;;;;8.99;68.35;101473.84;5077824;28;49462;-60
2021/11/05 06:16:00;;;;;;;;;4.00;4.00;;;;;8.97;68.31;101478.38;5076726;27;45467;-61
2021/11/05 06:18:26;;;;;;;;;3.50;2.75;;;;;8.99;68.39;101481.72;5077900;27;45430;-60
2021/11/05 06:20:51;;;;;;;;;2.50;2.25;;;;;8.98;68.15;101480.03;5076807;27;45375;-60
2021/11/05 06:23:17;;;;;;;;;4.75;3.00;;;;;8.98;68.16;101477.41;5077052;27;68052;-60
2021/11/05 06:25:42;;;;;;;;;2.75;0.50;;;;;8.99;67.80;101488.72;5077518;28;45185;-61
2021/11/05 06:28:08;;;;;;;;;5.00;2.75;;;;;8.97;67.72;101494.09;5078187;28;45346;-60
2021/11/05 06:30:33;;;;;;;;;3.25;3.00;;;;;8.95;67.96;101489.88;5077713;28;45288;-60
2021/11/05 06:33:00;;;;;;;;;3.25;3.25;;;;;8.94;67.70;101494.28;5077097;27;56211;-60
2021/11/05 06:35:25;;;;;;;;;4.75;2.00;;;;;8.96;67.82;101495.03;5077766;28;45391;-60
2021/11/05 06:37:50;;;;;;;;;3.75;2.50;;;;;8.98;67.78;101503.63;5076819;28;64121;-60
2021/11/05 06:40:16;;;;;;;;;4.25;4.25;;;;;8.98;67.79;101518.50;5077756;27;45427;-60
2021/11/05 06:42:41;;;;;;;;;7.00;7.00;;;;;8.94;67.81;101517.88;5077148;28;55178;-60
2021/11/05 06:45:10;;;;;;;;;4.75;4.00;;;;;8.95;68.04;101513.47;5076795;28;65034;-60
2021/11/05 06:47:35;;;;;;;;;6.75;5.00;;;;;8.94;68.11;101520.50;5076189;27;45266;-60
2021/11/05 06:50:01;;;;;;;;;10.50;7.00;;;;;8.93;67.92;101518.81;5076382;27;45555;-61
2021/11/05 06:52:26;;;;;;;;;11.50;7.00;;;;;8.92;67.80;101519.75;5077180;27;46302;-60
2021/11/05 06:54:52;;;;;;;;;10.50;7.00;;;;;8.92;67.88;101527.63;5076566;28;61333;-60
2021/11/05 06:57:17;;;;;;;;;22.75;20.00;;;;;8.93;67.81;101534.53;5076167;28;45430;-60
2021/11/05 06:59:43;;;;;;;;;25.25;22.75;;;;;8.93;67.28;101533.69;5077300;27;45506;-60
2021/11/05 07:02:08;;;;;;;;;11.25;8.25;;;;;8.92;67.73;101535.50;5077202;27;46131;-60
2021/11/05 07:04:33;;;;;;;;;26.50;21.50;;;;;8.90;67.61;101540.81;5076053;28;45301;-60
2021/11/05 07:06:59;;;;;;;;;5.00;5.00;;;;;8.92;67.46;101545.97;5076667;28;61854;-60
2021/11/05 07:09:24;;;;;;;;;10.25;7.75;;;;;8.92;67.77;101556.47;5076104;28;63070;-60
2021/11/05 07:11:50;;;;;;;;;12.00;9.25;;;;;8.94;67.53;101551.09;5076577;28;45409;-60
2021/11/05 07:14:15;;;;;;;;;14.00;10.00;;;;;8.95;67.86;101558.03;5075075;27;45532;-60
2021/11/05 07:16:41;;;;;;;;;10.50;10.50;;;;;8.94;67.73;101567.69;5076666;28;45829;-59
2021/11/05 07:19:07;;;;;;;;;6.75;5.00;;;;;8.94;67.71;101572.94;5077023;28;45513;-60
2021/11/05 07:21:32;;;;;;;;;13.00;11.00;;;;;8.94;67.78;101572.06;5076346;27;46395;-61
2021/11/05 07:24:02;;;;;;;;;8.50;8.25;;;;;8.95;67.72;101579.84;5076528;27;45301;-60
2021/11/05 07:26:33;;;;;;;;;15.75;11.25;;;;;8.95;67.89;101590.34;5077059;28;45488;-60
2021/11/05 07:29:03;;;;;;;;;11.75;9.75;;;;;8.94;67.96;101590.41;5075463;28;45446;-60
2021/11/05 07:31:28;;;;;;;;;13.00;8.25;;;;;8.97;67.76;101593.69;5076692;28;47166;-61
2021/11/05 07:33:54;;;;;;;;;6.00;6.00;;;;;8.96;67.89;101592.00;5076834;28;45299;-59
2021/11/05 07:36:19;;;;;;;;;7.00;7.00;;;;;8.97;67.93;101601.56;5076038;28;65192;-60
2021/11/05 07:38:44;;;;;;;;;6.75;6.75;;;;;8.97;67.83;101606.81;5075992;28;63694;-61
2021/11/05 07:41:11;;;;;;;;;10.00;8.75;;;;;8.99;67.72;101606.69;5075778;28;70368;-61
2021/11/05 07:43:36;;;;;;;;;17.75;12.75;;;;;8.98;67.78;101611.09;5075450;28;45887;-61
2021/11/05 07:46:02;;;;;;;;;6.50;5.75;;;;;8.98;67.71;101618.97;5076595;27;45338;-60
2021/11/05 07:48:27;;;;;;;;;14.00;11.00;;;;;9.00;67.60;101624.09;5075855;28;55283;-60
2021/11/05 07:50:53;;;;;;;;;7.50;7.00;;;;;8.99;67.75;101622.41;5076540;28;46492;-61
2021/11/05 07:53:18;;;;;;;;;6.00;5.50;;;;;8.98;67.50;101629.47;5075202;28;45520;-60
2021/11/05 07:55:46;;;;;;;;;8.00;7.00;;;;;8.97;67.56;101638.25;5075968;28;63529;-61
2021/11/05 07:58:11;;;;;;;;;2.00;2.00;;;;;8.98;67.41;101642.56;5076583;28;45446;-60
2021/11/05 08:00:36;;;;;;;;;2.50;2.00;;;;;8.98;67.56;101641.72;5075528;28;67293;-60
2021/11/05 08:03:02;;;;;;;;;4.00;2.75;;;;;8.99;67.58;101640.78;5075753;27;60138;-61
2021/11/05 08:05:27;;;;;;;;;3.25;3.00;;;;;9.00;67.42;101645.94;5076746;27;45298;-60
2021/11/05 08:07:53;;;;;;;;;6.25;5.00;;;;;9.01;67.59;101650.19;5075652;28;63340;-61
2021/11/05 08:10:20;;;;;;;;;3.75;3.00;;;;;9.02;67.63;101651.88;5076361;28;45975;-61
2021/11/05 08:12:47;;;;;;;;;5.75;3.00;;;;;9.03;67.56;101653.56;5075916;28;45452;-60
2021/11/05 08:15:12;;;;;;;;;3.00;3.00;;;;;9.05;67.78;101656.94;5074448;28;45493;-60
2021/11/05 08:17:37;;;;;;;;;3.00;3.00;;;;;9.08;67.38;101670.78;5076257;27;45440;-60
2021/11/05 08:20:03;;;;;;;;;5.00;3.75;;;;;9.08;67.25;101669.03;5075987;28;52601;-60
2021/11/05 08:22:29;;;;;;;;;2.50;2.50;;;;;9.08;67.59;101668.16;5076293;28;45406;-60
2021/11/05 08:24:54;;;;;;;;;5.25;3.75;;;;;9.10;67.34;101674.16;5075906;28;64805;-61
2021/11/05 08:27:20;;;;;;;;;5.00;3.50;;;;;9.12;67.35;101674.91;5079934;28;45360;-61
2021/11/05 08:29:45;;;;;;;;;4.50;4.00;;;;;9.15;67.14;101687.81;5079747;28;46027;-60
2021/11/05 08:32:11;;;;;;;;;8.25;5.00;;;;;9.17;67.14;101688.56;5079715;28;45355;-60
2021/11/05 08:34:39;;;;;;;;;5.25;4.00;;;;;9.17;67.42;101692.03;5079399;28;49371;-61
2021/11/05 08:37:04;;;;;;;;;10.50;6.75;;;;;9.19;67.43;101699.78;5061836;28;45504;-61
2021/11/05 08:39:29;;;;;;;;;9.00;6.00;;;;;9.21;67.16;101700.53;5079120;28;45230;-60
2021/11/05 08:41:55;;;;;;;;;5.75;2.75;;;;;9.21;67.03;101711.03;5078657;28;68142;-60
2021/11/05 08:44:20;;;;;;;;;3.00;3.00;;;;;9.20;67.20;101714.59;5079071;27;60311;-60
2021/11/05 08:46:46;;;;;;;;;4.50;3.50;;;;;9.21;67.15;101708.41;5077539;27;60362;-60
2021/11/05 08:49:14;;;;;;;;;5.75;3.00;;;;;9.21;67.01;101721.50;5079132;28;46157;-60
2021/11/05 08:51:42;;;;;;;;;5.75;3.00;;;;;9.21;67.21;101724.13;5078179;27;45438;-61
2021/11/05 08:54:07;;;;;;;;;10.00;4.00;;;;;9.21;67.17;101732.00;5079355;28;45401;-60
2021/11/05 08:56:33;;;;;;;;;6.00;3.00;;;;;9.25;67.28;101724.81;5079491;27;45582;-61
2021/11/05 08:58:58;;;;;;;;;5.75;3.00;;;;;9.24;67.25;101731.81;5078497;27;63821;-60
2021/11/05 09:01:23;;;;;;;;;6.50;5.00;;;;;9.26;67.20;101735.19;5079295;28;45473;-60
2021/11/05 09:03:49;;;;;;;;;4.50;3.00;;;;;9.27;67.26;101734.25;5079205;28;45215;-61
2021/11/05 09:06:15;;;;;;;;;3.50;3.00;;;;;9.31;67.28;101733.09;5061297;28;45389;-61
2021/11/05 09:08:43;;;;;;;;;1.00;1.00;;;;;9.38;67.09;101730.09;5078246;27;66670;-60
2021/11/05 09:11:09;;;;;;;;;1.00;1.00;;;;;9.49;67.30;101738.94;5079079;27;45969;-61
2021/11/05 09:13:34;;;;;;;;;4.00;1.75;;;;;9.62;67.09;101740.78;5079248;27;45365;-60
2021/11/05 09:16:00;;;;;;;;;4.25;3.00;;;;;9.75;66.86;101743.44;5079241;27;45619;-60
2021/11/05 09:18:25;;;;;;;;;3.75;2.00;;;;;9.87;67.11;101744.41;5078915;27;46299;-60
2021/11/05 09:20:51;;;;;;;;;4.00;2.00;;;;;9.97;66.88;101747.28;5078943;27;45311;-59
2021/11/05 09:23:16;;;;;;;;;4.75;4.75;;;;;10.07;66.90;101751.81;5079075;27;45236;-61
2021/11/05 09:25:42;;;;;;;;;2.50;2.00;;;;;10.21;66.80;101753.50;5077751;28;45321;-61
2021/11/05 09:28:07;;;;;;;;;2.00;2.00;;;;;10.38;66.57;101760.22;5078655;27;45490;-61
2021/11/05 09:30:32;;;;;;;;;4.00;3.00;;;;;10.65;66.31;101759.31;5078944;27;45325;-60
2021/11/05 09:32:58;;;;;;;;;3.00;3.00;;;;;10.92;65.07;101758.31;5079008;28;45315;-61
2021/11/05 09:35:24;;;;;;;;;4.50;2.00;;;;;11.19;63.90;101761.72;5076594;27;45214;-61
2021/11/05 09:37:50;;;;;;;;;4.00;2.75;;;;;11.41;63.85;101764.50;5078167;28;45378;-61
2021/11/05 09:40:17;;;;;;;;;4.00;3.00;;;;;11.63;63.21;101762.09;5078581;27;45943;-61
2021/11/05 09:42:43;;;;;;;;;3.25;2.00;;;;;11.82;62.09;101769.47;5078871;27;45349;-61
2021/11/05 09:45:09;;;;;;;;;3.50;3.00;;;;;11.98;60.65;101775.28;5078617;27;45364;-61
2021/11/05 09:47:34;;;;;;;;;18.75;10.75;;;;;12.13;60.62;101775.94;5076969;28;46235;-61
2021/11/05 09:50:00;;;;;;;;;2.00;2.00;;;;;12.33;60.77;101776.25;5077238;27;45345;-61
2021/11/05 09:52:25;;;;;;;;;4.00;2.25;;;;;12.54;60.21;101779.03;5077661;28;62661;-61
2021/11/05 09:54:51;;;;;;;;;1.50;1.50;;;;;12.74;59.58;101785.41;5060073;27;45436;-61
2021/11/05 09:57:16;;;;;;;;;8.00;3.75;;;;;12.93;58.53;101789.25;5078300;28;45177;-61
2021/11/05 09:59:42;;;;;;;;;4.00;2.00;;;;;13.06;58.11;101789.09;5078349;28;45326;-61
2021/11/05 10:02:10;;;;;;;;;8.00;2.00;;;;;13.21;58.29;101789.69;5078467;27;45231;-60
2021/11/05 10:04:35;;;;;;;;;3.25;2.25;;;;;13.37;57.74;101794.56;5078309;28;45544;-61
2021/11/05 10:07:02;;;;;;;;;2.00;2.00;;;;;13.53;56.95;101803.91;5077211;27;68025;-60
2021/11/05 10:09:44;;;;;;;;;5.00;2.00;;;;;13.69;56.58;101800.88;5078156;27;45906;-62
2021/11/05 10:12:17;;;;;;;;;4.50;1.00;;;;;13.84;55.96;101798.75;5078121;27;45263;-61
2021/11/05 10:14:44;;;;;;;;;2.50;2.00;;;;;13.94;55.84;101810.25;5078178;28;45422;-61
2021/11/05 10:17:11;;;;;;;;;2.75;2.00;;;;;14.01;55.53;101808.78;5077539;27;46175;-61
2021/11/05 10:19:56;;;;;;;;;2.50;1.75;;;;;14.09;55.31;101814.28;5078093;28;45456;-62
2021/11/05 10:22:47;;;;;;;;;3.00;3.00;;;;;14.13;54.77;101819.31;5076951;27;45391;-62
2021/11/05 10:25:16;;;;;;;;;2.00;2.00;;;;;14.06;55.00;101814.53;5077866;27;45592;-60
2021/11/05 10:27:41;;;;;;;;;4.00;2.00;;;;;14.00;54.94;101820.31;5077816;28;46124;-60
2021/11/05 10:30:07;;;;;;;;;1.25;1.00;;;;;14.02;54.68;101821.03;5077707;27;45405;-61
2021/11/05 10:32:34;;;;;;;;;2.25;2.00;;;;;14.06;54.75;101818.97;5077839;28;45488;-61
2021/11/05 10:35:08;;;;;;;;;3.25;2.50;;;;;14.11;54.81;101824.69;5076391;28;45422;-61
2021/11/05 10:37:34;;;;;;;;;4.00;2.00;;;;;14.18;54.99;101823.22;5060800;28;47648;-61
2021/11/05 10:40:00;;;;;;;;;3.00;1.50;;;;;14.31;54.60;101828.31;5076695;28;71366;-61
2021/11/05 10:42:33;;;;;;;;;4.75;2.75;;;;;14.42;53.76;101831.88;5076600;27;45316;-60
2021/11/05 10:45:14;;;;;;;;;1.00;1.00;;;;;14.44;53.47;101832.59;5077717;27;45317;-61
2021/11/05 10:47:54;;;;;;;;;5.00;4.00;;;;;14.29;52.80;101840.88;5077055;28;46445;-61
2021/11/05 10:50:24;;;;;;;;;4.50;1.75;;;;;14.10;53.26;101834.44;5077323;27;45322;-61
2021/11/05 10:52:59;;;;;;;;;3.00;1.50;;;;;13.96;53.57;101840.03;5076496;28;45249;-61
2021/11/05 10:55:25;;;;;;;;;2.00;1.75;;;;;13.87;53.85;101833.72;5077578;27;45260;-61
2021/11/05 10:57:51;;;;;;;;;5.00;2.00;;;;;13.77;53.76;101836.28;5076262;28;45347;-60
2021/11/05 11:00:25;;;;;;;;;4.75;3.00;;;;;13.73;54.81;101836.63;5077275;28;45805;-61
2021/11/05 11:02:50;;;;;;;;;5.25;3.00;;;;;13.64;54.45;101836.41;5077607;28;45373;-60
2021/11/05 11:05:32;;;;;;;;;6.00;2.50;;;;;13.54;55.13;101830.19;5076234;28;45399;-61
2021/11/05 11:07:59;;;;;;;;;1.25;1.25;;;;;13.45;55.19;101831.78;5077163;28;45694;-60
2021/11/05 11:10:34;;;;;;;;;2.25;2.25;;;;;13.38;55.17;101845.56;5077315;28;45350;-61
2021/11/05 11:13:00;;;;;;;;;4.00;1.50;;;;;13.27;55.00;101839.34;5077313;28;45252;-61
2021/11/05 11:15:35;;;;;;;;;4.75;2.00;;;;;13.28;55.20;101840.16;5076033;28;45455;-60
2021/11/05 11:18:01;;;;;;;;;1.75;1.00;;;;;13.31;56.08;101834.63;5077131;28;46454;-62
2021/11/05 11:20:30;;;;;;;;;1.75;1.75;;;;;13.38;55.30;101835.84;5077133;28;45425;-61
2021/11/05 11:22:57;;;;;;;;;4.25;1.00;;;;;13.42;55.28;101837.31;5077123;28;45219;-61
2021/11/05 11:25:22;;;;;;;;;2.50;0.00;;;;;13.40;55.54;101838.38;5074916;28;45388;-61
2021/11/05 11:27:47;;;;;;;;;2.00;0.75;;;;;13.38;55.30;101841.13;5076181;28;64944;-61